sensor_id;sensor_type;location;lat;lon;timestamp;P1;durP1;ratioP1;P2;durP2;ratioP2
54909;SDS011;63189;51.240;9.964;2024-01-15T00:00:07;22.70;;;11.70;;
54909;SDS011;63189;51.240;9.964;2024-01-15T00:02:33;22.55;;;11.32;;
54909;SDS011;63189;51.240;9.964;2024-01-15T00:04:59;21.80;;;11.70;;
54909;SDS011;63189;51.240;9.964;2024-01-15T00:07:24;23.05;;;12.57;;
54909;SDS011;63189;51.240;9.964;2024-01-15T00:09:49;23.35;;;12.45;;
54909;SDS011;63189;51.240;9.964;2024-01-15T00:12:14;22.27;;;11.52;;
54909;SDS011;63189;51.240;9.964;2024-01-15T00:14:40;23.40;;;12.35;;
54909;SDS011;63189;51.240;9.964;2024-01-15T00:17:05;24.30;;;12.55;;
54909;SDS011;63189;51.240;9.964;2024-01-15T00:19:31;21.00;;;11.35;;
54909;SDS011;63189;51.240;9.964;2024-01-15T00:21:57;19.33;;;11.50;;
54909;SDS011;63189;51.240;9.964;2024-01-15T00:24:22;19.23;;;10.70;;
54909;SDS011;63189;51.240;9.964;2024-01-15T00:26:48;19.58;;;11.00;;
54909;SDS011;63189;51.240;9.964;2024-01-15T00:29:13;20.27;;;11.73;;
54909;SDS011;63189;51.240;9.964;2024-01-15T00:31:38;20.25;;;11.43;;
54909;SDS011;63189;51.240;9.964;2024-01-15T00:34:03;22.10;;;10.75;;
54909;SDS011;63189;51.240;9.964;2024-01-15T00:36:29;22.98;;;11.10;;
54909;SDS011;63189;51.240;9.964;2024-01-15T00:38:54;21.77;;;11.32;;
54909;SDS011;63189;51.240;9.964;2024-01-15T00:41:19;21.08;;;11.35;;
54909;SDS011;63189;51.240;9.964;2024-01-15T00:43:45;21.77;;;11.50;;
54909;SDS011;63189;51.240;9.964;2024-01-15T00:46:11;18.58;;;10.98;;
54909;SDS011;63189;51.240;9.964;2024-01-15T00:48:36;22.40;;;11.43;;
54909;SDS011;63189;51.240;9.964;2024-01-15T00:51:02;24.52;;;12.05;;
54909;SDS011;63189;51.240;9.964;2024-01-15T00:53:28;25.25;;;12.05;;
54909;SDS011;63189;51.240;9.964;2024-01-15T00:55:53;24.25;;;12.05;;
54909;SDS011;63189;51.240;9.964;2024-01-15T00:58:18;21.33;;;11.35;;
54909;SDS011;63189;51.240;9.964;2024-01-15T01:00:44;22.83;;;12.20;;
54909;SDS011;63189;51.240;9.964;2024-01-15T01:03:09;21.15;;;11.35;;
54909;SDS011;63189;51.240;9.964;2024-01-15T01:05:34;20.90;;;10.38;;
54909;SDS011;63189;51.240;9.964;2024-01-15T01:08:00;19.52;;;9.75;;
54909;SDS011;63189;51.240;9.964;2024-01-15T01:10:25;21.95;;;10.75;;
54909;SDS011;63189;51.240;9.964;2024-01-15T01:12:50;21.95;;;11.18;;
54909;SDS011;63189;51.240;9.964;2024-01-15T01:15:16;17.77;;;9.32;;
54909;SDS011;63189;51.240;9.964;2024-01-15T01:17:41;22.48;;;10.75;;
54909;SDS011;63189;51.240;9.964;2024-01-15T01:20:06;19.58;;;10.00;;
54909;SDS011;63189;51.240;9.964;2024-01-15T01:22:34;16.98;;;10.10;;
54909;SDS011;63189;51.240;9.964;2024-01-15T01:24:59;18.83;;;9.70;;
54909;SDS011;63189;51.240;9.964;2024-01-15T01:27:24;18.58;;;9.82;;
54909;SDS011;63189;51.240;9.964;2024-01-15T01:29:50;17.10;;;9.20;;
54909;SDS011;63189;51.240;9.964;2024-01-15T01:32:15;19.20;;;8.50;;
54909;SDS011;63189;51.240;9.964;2024-01-15T01:34:40;15.82;;;8.80;;
54909;SDS011;63189;51.240;9.964;2024-01-15T01:37:09;16.27;;;8.45;;
54909;SDS011;63189;51.240;9.964;2024-01-15T01:39:38;15.90;;;8.55;;
54909;SDS011;63189;51.240;9.964;2024-01-15T01:42:03;19.20;;;9.15;;
54909;SDS011;63189;51.240;9.964;2024-01-15T01:44:29;16.10;;;8.80;;
54909;SDS011;63189;51.240;9.964;2024-01-15T01:46:54;16.75;;;8.35;;
54909;SDS011;63189;51.240;9.964;2024-01-15T01:49:19;13.45;;;8.10;;
54909;SDS011;63189;51.240;9.964;2024-01-15T01:51:45;14.82;;;8.05;;
54909;SDS011;63189;51.240;9.964;2024-01-15T01:54:12;14.05;;;7.65;;
54909;SDS011;63189;51.240;9.964;2024-01-15T01:56:38;13.57;;;7.47;;
54909;SDS011;63189;51.240;9.964;2024-01-15T01:59:05;12.98;;;7.00;;
54909;SDS011;63189;51.240;9.964;2024-01-15T02:01:32;15.55;;;7.93;;
54909;SDS011;63189;51.240;9.964;2024-01-15T02:03:58;16.73;;;8.20;;
54909;SDS011;63189;51.240;9.964;2024-01-15T02:06:24;13.52;;;7.65;;
54909;SDS011;63189;51.240;9.964;2024-01-15T02:08:49;14.57;;;7.88;;
54909;SDS011;63189;51.240;9.964;2024-01-15T02:11:15;15.88;;;7.78;;
54909;SDS011;63189;51.240;9.964;2024-01-15T02:13:40;15.18;;;7.80;;
54909;SDS011;63189;51.240;9.964;2024-01-15T02:16:06;15.57;;;7.88;;
54909;SDS011;63189;51.240;9.964;2024-01-15T02:18:43;15.95;;;7.45;;
54909;SDS011;63189;51.240;9.964;2024-01-15T02:21:10;14.73;;;7.38;;
54909;SDS011;63189;51.240;9.964;2024-01-15T02:23:36;14.80;;;7.95;;
54909;SDS011;63189;51.240;9.964;2024-01-15T02:26:01;14.93;;;7.93;;
54909;SDS011;63189;51.240;9.964;2024-01-15T02:28:27;13.68;;;7.63;;
54909;SDS011;63189;51.240;9.964;2024-01-15T02:30:52;15.00;;;8.15;;
54909;SDS011;63189;51.240;9.964;2024-01-15T02:33:18;14.48;;;8.50;;
54909;SDS011;63189;51.240;9.964;2024-01-15T02:35:43;15.32;;;8.18;;
54909;SDS011;63189;51.240;9.964;2024-01-15T02:38:08;16.88;;;8.68;;
54909;SDS011;63189;51.240;9.964;2024-01-15T02:40:34;13.15;;;7.35;;
54909;SDS011;63189;51.240;9.964;2024-01-15T02:43:00;13.80;;;7.75;;
54909;SDS011;63189;51.240;9.964;2024-01-15T02:45:25;17.15;;;8.48;;
54909;SDS011;63189;51.240;9.964;2024-01-15T02:47:51;15.60;;;8.38;;
54909;SDS011;63189;51.240;9.964;2024-01-15T02:50:16;13.77;;;7.82;;
54909;SDS011;63189;51.240;9.964;2024-01-15T02:52:41;14.30;;;7.53;;
54909;SDS011;63189;51.240;9.964;2024-01-15T02:55:07;14.05;;;7.65;;
54909;SDS011;63189;51.240;9.964;2024-01-15T02:57:33;13.40;;;7.68;;
54909;SDS011;63189;51.240;9.964;2024-01-15T02:59:58;13.30;;;7.63;;
54909;SDS011;63189;51.240;9.964;2024-01-15T03:02:23;14.18;;;7.72;;
54909;SDS011;63189;51.240;9.964;2024-01-15T03:04:49;13.93;;;7.03;;
54909;SDS011;63189;51.240;9.964;2024-01-15T03:07:14;11.13;;;6.72;;
54909;SDS011;63189;51.240;9.964;2024-01-15T03:09:39;10.65;;;6.05;;
54909;SDS011;63189;51.240;9.964;2024-01-15T03:12:05;13.35;;;7.10;;
54909;SDS011;63189;51.240;9.964;2024-01-15T03:14:30;11.82;;;6.60;;
54909;SDS011;63189;51.240;9.964;2024-01-15T03:16:56;15.85;;;7.40;;
54909;SDS011;63189;51.240;9.964;2024-01-15T03:19:21;15.60;;;7.75;;
54909;SDS011;63189;51.240;9.964;2024-01-15T03:21:46;12.57;;;7.07;;
54909;SDS011;63189;51.240;9.964;2024-01-15T03:24:12;15.98;;;7.63;;
54909;SDS011;63189;51.240;9.964;2024-01-15T03:26:37;12.30;;;6.78;;
54909;SDS011;63189;51.240;9.964;2024-01-15T03:29:02;9.60;;;5.90;;
54909;SDS011;63189;51.240;9.964;2024-01-15T03:31:28;12.18;;;6.50;;
54909;SDS011;63189;51.240;9.964;2024-01-15T03:33:53;11.27;;;5.53;;
54909;SDS011;63189;51.240;9.964;2024-01-15T03:36:18;11.27;;;5.90;;
54909;SDS011;63189;51.240;9.964;2024-01-15T03:38:43;13.68;;;6.32;;
54909;SDS011;63189;51.240;9.964;2024-01-15T03:41:09;12.80;;;6.45;;
54909;SDS011;63189;51.240;9.964;2024-01-15T03:43:34;10.90;;;6.57;;
54909;SDS011;63189;51.240;9.964;2024-01-15T03:45:59;9.93;;;5.97;;
54909;SDS011;63189;51.240;9.964;2024-01-15T03:48:25;11.68;;;6.70;;
54909;SDS011;63189;51.240;9.964;2024-01-15T03:50:50;13.93;;;6.95;;
54909;SDS011;63189;51.240;9.964;2024-01-15T03:53:15;10.70;;;6.40;;
54909;SDS011;63189;51.240;9.964;2024-01-15T03:55:41;11.52;;;6.13;;
54909;SDS011;63189;51.240;9.964;2024-01-15T03:58:07;11.50;;;6.63;;
54909;SDS011;63189;51.240;9.964;2024-01-15T04:00:32;12.60;;;6.45;;
54909;SDS011;63189;51.240;9.964;2024-01-15T04:02:57;11.07;;;6.13;;
54909;SDS011;63189;51.240;9.964;2024-01-15T04:05:23;11.23;;;5.93;;
54909;SDS011;63189;51.240;9.964;2024-01-15T04:07:48;11.50;;;6.15;;
54909;SDS011;63189;51.240;9.964;2024-01-15T04:10:13;11.60;;;6.30;;
54909;SDS011;63189;51.240;9.964;2024-01-15T04:12:39;11.70;;;6.95;;
54909;SDS011;63189;51.240;9.964;2024-01-15T04:15:04;12.00;;;6.38;;
54909;SDS011;63189;51.240;9.964;2024-01-15T04:17:29;12.40;;;5.75;;
54909;SDS011;63189;51.240;9.964;2024-01-15T04:19:55;12.90;;;5.55;;
54909;SDS011;63189;51.240;9.964;2024-01-15T04:22:20;12.55;;;5.18;;
54909;SDS011;63189;51.240;9.964;2024-01-15T04:24:45;8.43;;;4.93;;
54909;SDS011;63189;51.240;9.964;2024-01-15T04:27:11;11.70;;;5.68;;
54909;SDS011;63189;51.240;9.964;2024-01-15T04:29:39;10.85;;;5.95;;
54909;SDS011;63189;51.240;9.964;2024-01-15T04:32:05;10.18;;;5.45;;
54909;SDS011;63189;51.240;9.964;2024-01-15T04:34:30;11.10;;;5.97;;
54909;SDS011;63189;51.240;9.964;2024-01-15T04:36:56;7.25;;;4.97;;
54909;SDS011;63189;51.240;9.964;2024-01-15T04:39:21;8.32;;;5.68;;
54909;SDS011;63189;51.240;9.964;2024-01-15T04:41:47;9.88;;;5.82;;
54909;SDS011;63189;51.240;9.964;2024-01-15T04:44:12;9.05;;;5.13;;
54909;SDS011;63189;51.240;9.964;2024-01-15T04:46:37;8.23;;;5.40;;
54909;SDS011;63189;51.240;9.964;2024-01-15T04:49:03;10.68;;;6.07;;
54909;SDS011;63189;51.240;9.964;2024-01-15T04:51:28;12.07;;;5.93;;
54909;SDS011;63189;51.240;9.964;2024-01-15T04:53:53;9.43;;;5.43;;
54909;SDS011;63189;51.240;9.964;2024-01-15T04:56:19;9.20;;;5.53;;
54909;SDS011;63189;51.240;9.964;2024-01-15T04:58:44;14.25;;;5.85;;
54909;SDS011;63189;51.240;9.964;2024-01-15T05:01:09;9.93;;;5.38;;
54909;SDS011;63189;51.240;9.964;2024-01-15T05:03:35;10.98;;;6.13;;
54909;SDS011;63189;51.240;9.964;2024-01-15T05:06:00;11.07;;;5.43;;
54909;SDS011;63189;51.240;9.964;2024-01-15T05:08:26;11.68;;;6.20;;
54909;SDS011;63189;51.240;9.964;2024-01-15T05:10:51;12.02;;;6.05;;
54909;SDS011;63189;51.240;9.964;2024-01-15T05:13:16;11.52;;;5.82;;
54909;SDS011;63189;51.240;9.964;2024-01-15T05:15:41;10.65;;;5.68;;
54909;SDS011;63189;51.240;9.964;2024-01-15T05:18:07;9.65;;;5.93;;
54909;SDS011;63189;51.240;9.964;2024-01-15T05:20:32;9.38;;;5.82;;
54909;SDS011;63189;51.240;9.964;2024-01-15T05:22:57;11.38;;;6.32;;
54909;SDS011;63189;51.240;9.964;2024-01-15T05:25:23;10.98;;;6.03;;
54909;SDS011;63189;51.240;9.964;2024-01-15T05:27:48;12.70;;;6.55;;
54909;SDS011;63189;51.240;9.964;2024-01-15T05:30:14;11.32;;;6.00;;
54909;SDS011;63189;51.240;9.964;2024-01-15T05:32:39;14.50;;;5.88;;
54909;SDS011;63189;51.240;9.964;2024-01-15T05:35:05;14.73;;;6.25;;
54909;SDS011;63189;51.240;9.964;2024-01-15T05:37:30;13.52;;;7.00;;
54909;SDS011;63189;51.240;9.964;2024-01-15T05:39:56;12.40;;;6.30;;
54909;SDS011;63189;51.240;9.964;2024-01-15T05:42:21;11.20;;;6.25;;
54909;SDS011;63189;51.240;9.964;2024-01-15T05:44:46;12.57;;;6.05;;
54909;SDS011;63189;51.240;9.964;2024-01-15T05:47:12;14.02;;;6.32;;
54909;SDS011;63189;51.240;9.964;2024-01-15T05:49:37;10.95;;;5.63;;
54909;SDS011;63189;51.240;9.964;2024-01-15T05:52:02;13.25;;;6.07;;
54909;SDS011;63189;51.240;9.964;2024-01-15T05:54:28;14.90;;;6.68;;
54909;SDS011;63189;51.240;9.964;2024-01-15T05:56:54;24.20;;;12.85;;
54909;SDS011;63189;51.240;9.964;2024-01-15T05:59:19;13.23;;;7.28;;
54909;SDS011;63189;51.240;9.964;2024-01-15T06:01:44;12.65;;;7.63;;
54909;SDS011;63189;51.240;9.964;2024-01-15T06:04:10;14.38;;;7.10;;
54909;SDS011;63189;51.240;9.964;2024-01-15T06:06:35;13.73;;;7.57;;
54909;SDS011;63189;51.240;9.964;2024-01-15T06:09:00;16.08;;;6.93;;
54909;SDS011;63189;51.240;9.964;2024-01-15T06:11:30;14.20;;;7.88;;
54909;SDS011;63189;51.240;9.964;2024-01-15T06:13:58;16.38;;;8.10;;
54909;SDS011;63189;51.240;9.964;2024-01-15T06:16:25;17.15;;;8.20;;
54909;SDS011;63189;51.240;9.964;2024-01-15T06:18:50;15.43;;;7.82;;
54909;SDS011;63189;51.240;9.964;2024-01-15T06:21:16;16.60;;;7.80;;
54909;SDS011;63189;51.240;9.964;2024-01-15T06:23:42;15.55;;;8.25;;
54909;SDS011;63189;51.240;9.964;2024-01-15T06:26:09;21.55;;;9.32;;
54909;SDS011;63189;51.240;9.964;2024-01-15T06:28:36;16.10;;;8.43;;
54909;SDS011;63189;51.240;9.964;2024-01-15T06:31:02;16.25;;;8.45;;
54909;SDS011;63189;51.240;9.964;2024-01-15T06:33:28;15.27;;;7.93;;
54909;SDS011;63189;51.240;9.964;2024-01-15T06:35:53;16.00;;;8.45;;
54909;SDS011;63189;51.240;9.964;2024-01-15T06:38:19;14.00;;;8.27;;
54909;SDS011;63189;51.240;9.964;2024-01-15T06:40:44;15.32;;;8.45;;
54909;SDS011;63189;51.240;9.964;2024-01-15T06:43:11;18.88;;;7.93;;
54909;SDS011;63189;51.240;9.964;2024-01-15T06:45:36;15.30;;;7.72;;
54909;SDS011;63189;51.240;9.964;2024-01-15T06:48:01;18.55;;;8.45;;
54909;SDS011;63189;51.240;9.964;2024-01-15T06:50:27;17.80;;;8.18;;
54909;SDS011;63189;51.240;9.964;2024-01-15T06:52:52;17.63;;;8.35;;
54909;SDS011;63189;51.240;9.964;2024-01-15T06:55:18;17.15;;;8.02;;
54909;SDS011;63189;51.240;9.964;2024-01-15T06:57:43;18.48;;;8.52;;
54909;SDS011;63189;51.240;9.964;2024-01-15T07:00:08;16.10;;;8.15;;
54909;SDS011;63189;51.240;9.964;2024-01-15T07:02:34;14.15;;;7.32;;
54909;SDS011;63189;51.240;9.964;2024-01-15T07:04:59;17.50;;;7.70;;
54909;SDS011;63189;51.240;9.964;2024-01-15T07:07:25;14.60;;;7.65;;
54909;SDS011;63189;51.240;9.964;2024-01-15T07:09:53;14.95;;;6.93;;
54909;SDS011;63189;51.240;9.964;2024-01-15T07:12:19;17.30;;;7.55;;
54909;SDS011;63189;51.240;9.964;2024-01-15T07:14:44;16.17;;;8.27;;
54909;SDS011;63189;51.240;9.964;2024-01-15T07:17:10;13.70;;;7.43;;
54909;SDS011;63189;51.240;9.964;2024-01-15T07:19:35;16.95;;;8.23;;
54909;SDS011;63189;51.240;9.964;2024-01-15T07:22:01;13.15;;;6.65;;
54909;SDS011;63189;51.240;9.964;2024-01-15T07:24:26;15.50;;;7.70;;
54909;SDS011;63189;51.240;9.964;2024-01-15T07:26:52;15.00;;;7.50;;
54909;SDS011;63189;51.240;9.964;2024-01-15T07:29:17;16.95;;;7.95;;
54909;SDS011;63189;51.240;9.964;2024-01-15T07:31:47;17.67;;;8.05;;
54909;SDS011;63189;51.240;9.964;2024-01-15T07:34:14;20.70;;;8.70;;
54909;SDS011;63189;51.240;9.964;2024-01-15T07:36:39;16.05;;;8.70;;
54909;SDS011;63189;51.240;9.964;2024-01-15T07:39:04;13.88;;;7.38;;
54909;SDS011;63189;51.240;9.964;2024-01-15T07:41:30;15.70;;;8.15;;
54909;SDS011;63189;51.240;9.964;2024-01-15T07:43:55;15.35;;;8.25;;
54909;SDS011;63189;51.240;9.964;2024-01-15T07:46:20;19.92;;;8.38;;
54909;SDS011;63189;51.240;9.964;2024-01-15T07:48:45;16.20;;;8.18;;
54909;SDS011;63189;51.240;9.964;2024-01-15T07:51:11;15.90;;;8.27;;
54909;SDS011;63189;51.240;9.964;2024-01-15T07:53:36;18.75;;;9.25;;
54909;SDS011;63189;51.240;9.964;2024-01-15T07:56:01;19.63;;;9.30;;
54909;SDS011;63189;51.240;9.964;2024-01-15T07:58:27;18.42;;;9.05;;
54909;SDS011;63189;51.240;9.964;2024-01-15T08:00:52;21.98;;;9.20;;
54909;SDS011;63189;51.240;9.964;2024-01-15T08:03:17;20.42;;;9.20;;
54909;SDS011;63189;51.240;9.964;2024-01-15T08:05:43;17.35;;;8.65;;
54909;SDS011;63189;51.240;9.964;2024-01-15T08:08:08;16.52;;;8.70;;
54909;SDS011;63189;51.240;9.964;2024-01-15T08:10:33;18.85;;;8.95;;
54909;SDS011;63189;51.240;9.964;2024-01-15T08:12:59;16.42;;;7.63;;
54909;SDS011;63189;51.240;9.964;2024-01-15T08:15:24;18.20;;;8.32;;
54909;SDS011;63189;51.240;9.964;2024-01-15T08:17:49;18.38;;;8.05;;
54909;SDS011;63189;51.240;9.964;2024-01-15T08:20:15;16.67;;;7.75;;
54909;SDS011;63189;51.240;9.964;2024-01-15T08:22:41;19.95;;;8.52;;
54909;SDS011;63189;51.240;9.964;2024-01-15T08:25:06;18.20;;;8.57;;
54909;SDS011;63189;51.240;9.964;2024-01-15T08:27:32;20.95;;;8.55;;
54909;SDS011;63189;51.240;9.964;2024-01-15T08:29:57;16.60;;;7.93;;
54909;SDS011;63189;51.240;9.964;2024-01-15T08:32:22;15.38;;;8.52;;
54909;SDS011;63189;51.240;9.964;2024-01-15T08:34:48;22.45;;;10.23;;
54909;SDS011;63189;51.240;9.964;2024-01-15T08:37:17;16.30;;;7.75;;
54909;SDS011;63189;51.240;9.964;2024-01-15T08:39:42;17.55;;;8.43;;
54909;SDS011;63189;51.240;9.964;2024-01-15T08:42:08;16.90;;;8.10;;
54909;SDS011;63189;51.240;9.964;2024-01-15T08:44:33;17.33;;;7.70;;
54909;SDS011;63189;51.240;9.964;2024-01-15T08:46:58;15.55;;;7.88;;
54909;SDS011;63189;51.240;9.964;2024-01-15T08:49:23;14.00;;;7.80;;
54909;SDS011;63189;51.240;9.964;2024-01-15T08:51:49;15.07;;;7.30;;
54909;SDS011;63189;51.240;9.964;2024-01-15T08:54:14;14.93;;;7.43;;
54909;SDS011;63189;51.240;9.964;2024-01-15T08:56:39;14.32;;;7.22;;
54909;SDS011;63189;51.240;9.964;2024-01-15T08:59:05;17.73;;;8.15;;
54909;SDS011;63189;51.240;9.964;2024-01-15T09:01:30;13.05;;;7.57;;
54909;SDS011;63189;51.240;9.964;2024-01-15T09:03:55;17.27;;;7.15;;
54909;SDS011;63189;51.240;9.964;2024-01-15T09:06:21;15.38;;;7.68;;
54909;SDS011;63189;51.240;9.964;2024-01-15T09:08:46;13.93;;;6.80;;
54909;SDS011;63189;51.240;9.964;2024-01-15T09:11:12;14.38;;;6.95;;
54909;SDS011;63189;51.240;9.964;2024-01-15T09:13:37;12.82;;;7.50;;
54909;SDS011;63189;51.240;9.964;2024-01-15T09:16:03;13.25;;;7.78;;
54909;SDS011;63189;51.240;9.964;2024-01-15T09:18:29;11.48;;;7.50;;
54909;SDS011;63189;51.240;9.964;2024-01-15T09:20:54;12.43;;;6.85;;
54909;SDS011;63189;51.240;9.964;2024-01-15T09:23:20;13.15;;;8.02;;
54909;SDS011;63189;51.240;9.964;2024-01-15T09:25:45;12.98;;;6.53;;
54909;SDS011;63189;51.240;9.964;2024-01-15T09:28:11;13.63;;;6.53;;
54909;SDS011;63189;51.240;9.964;2024-01-15T09:30:36;10.65;;;5.93;;
54909;SDS011;63189;51.240;9.964;2024-01-15T09:33:01;11.63;;;6.47;;
54909;SDS011;63189;51.240;9.964;2024-01-15T09:35:27;12.80;;;6.93;;
54909;SDS011;63189;51.240;9.964;2024-01-15T09:37:52;10.10;;;5.30;;
54909;SDS011;63189;51.240;9.964;2024-01-15T09:40:17;12.20;;;5.82;;
54909;SDS011;63189;51.240;9.964;2024-01-15T09:42:45;12.82;;;6.53;;
54909;SDS011;63189;51.240;9.964;2024-01-15T09:45:11;11.85;;;6.53;;
54909;SDS011;63189;51.240;9.964;2024-01-15T09:47:37;13.63;;;6.28;;
54909;SDS011;63189;51.240;9.964;2024-01-15T09:50:03;13.00;;;6.75;;
54909;SDS011;63189;51.240;9.964;2024-01-15T09:52:29;12.13;;;5.95;;
54909;SDS011;63189;51.240;9.964;2024-01-15T09:54:55;12.88;;;6.45;;
54909;SDS011;63189;51.240;9.964;2024-01-15T09:57:22;12.07;;;6.93;;
54909;SDS011;63189;51.240;9.964;2024-01-15T09:59:48;10.73;;;5.63;;
54909;SDS011;63189;51.240;9.964;2024-01-15T10:02:14;9.75;;;5.35;;
54909;SDS011;63189;51.240;9.964;2024-01-15T10:04:42;11.02;;;5.18;;
54909;SDS011;63189;51.240;9.964;2024-01-15T10:07:08;10.20;;;4.90;;
54909;SDS011;63189;51.240;9.964;2024-01-15T10:09:34;11.93;;;6.13;;
54909;SDS011;63189;51.240;9.964;2024-01-15T10:11:59;10.88;;;6.03;;
54909;SDS011;63189;51.240;9.964;2024-01-15T10:14:24;10.73;;;6.00;;
54909;SDS011;63189;51.240;9.964;2024-01-15T10:16:50;11.23;;;5.70;;
54909;SDS011;63189;51.240;9.964;2024-01-15T10:19:15;12.50;;;6.50;;
54909;SDS011;63189;51.240;9.964;2024-01-15T10:21:40;12.40;;;6.57;;
54909;SDS011;63189;51.240;9.964;2024-01-15T10:24:05;12.35;;;6.78;;
54909;SDS011;63189;51.240;9.964;2024-01-15T10:26:31;10.43;;;5.40;;
54909;SDS011;63189;51.240;9.964;2024-01-15T10:29:00;11.60;;;6.43;;
54909;SDS011;63189;51.240;9.964;2024-01-15T10:31:26;10.70;;;6.45;;
54909;SDS011;63189;51.240;9.964;2024-01-15T10:33:52;12.20;;;5.97;;
54909;SDS011;63189;51.240;9.964;2024-01-15T10:36:17;10.95;;;6.20;;
54909;SDS011;63189;51.240;9.964;2024-01-15T10:38:43;11.15;;;6.30;;
54909;SDS011;63189;51.240;9.964;2024-01-15T10:41:09;9.68;;;5.95;;
54909;SDS011;63189;51.240;9.964;2024-01-15T10:43:34;12.10;;;6.53;;
54909;SDS011;63189;51.240;9.964;2024-01-15T10:46:00;11.15;;;6.50;;
54909;SDS011;63189;51.240;9.964;2024-01-15T10:48:26;12.63;;;6.18;;
54909;SDS011;63189;51.240;9.964;2024-01-15T10:50:53;10.60;;;6.15;;
54909;SDS011;63189;51.240;9.964;2024-01-15T10:53:18;12.43;;;6.32;;
54909;SDS011;63189;51.240;9.964;2024-01-15T10:55:45;11.20;;;5.60;;
54909;SDS011;63189;51.240;9.964;2024-01-15T10:58:13;12.27;;;5.82;;
54909;SDS011;63189;51.240;9.964;2024-01-15T11:00:40;11.25;;;5.85;;
54909;SDS011;63189;51.240;9.964;2024-01-15T11:03:05;9.75;;;5.82;;
54909;SDS011;63189;51.240;9.964;2024-01-15T11:05:43;10.93;;;5.78;;
54909;SDS011;63189;51.240;9.964;2024-01-15T11:08:09;10.82;;;6.00;;
54909;SDS011;63189;51.240;9.964;2024-01-15T11:15:58;12.35;;;6.22;;
54909;SDS011;63189;51.240;9.964;2024-01-15T11:18:29;8.52;;;4.78;;
54909;SDS011;63189;51.240;9.964;2024-01-15T11:23:49;11.10;;;6.05;;
54909;SDS011;63189;51.240;9.964;2024-01-15T11:29:03;8.95;;;5.45;;
54909;SDS011;63189;51.240;9.964;2024-01-15T11:34:08;9.18;;;5.20;;
54909;SDS011;63189;51.240;9.964;2024-01-15T11:37:08;9.82;;;5.97;;
54909;SDS011;63189;51.240;9.964;2024-01-15T11:41:56;9.80;;;5.78;;
54909;SDS011;63189;51.240;9.964;2024-01-15T11:44:22;8.65;;;5.43;;
54909;SDS011;63189;51.240;9.964;2024-01-15T11:49:41;10.05;;;5.97;;
54909;SDS011;63189;51.240;9.964;2024-01-15T11:52:27;7.95;;;5.15;;
54909;SDS011;63189;51.240;9.964;2024-01-15T11:55:02;10.05;;;5.50;;
54909;SDS011;63189;51.240;9.964;2024-01-15T11:57:45;7.93;;;4.63;;
54909;SDS011;63189;51.240;9.964;2024-01-15T12:00:12;8.13;;;5.10;;
54909;SDS011;63189;51.240;9.964;2024-01-15T12:02:39;8.23;;;4.88;;
54909;SDS011;63189;51.240;9.964;2024-01-15T12:05:05;8.38;;;5.00;;
54909;SDS011;63189;51.240;9.964;2024-01-15T12:07:30;7.53;;;4.72;;
54909;SDS011;63189;51.240;9.964;2024-01-15T12:09:56;6.32;;;3.97;;
54909;SDS011;63189;51.240;9.964;2024-01-15T12:13:09;6.85;;;4.50;;
54909;SDS011;63189;51.240;9.964;2024-01-15T12:15:09;7.45;;;4.30;;
54909;SDS011;63189;51.240;9.964;2024-01-15T12:17:34;7.13;;;4.30;;
54909;SDS011;63189;51.240;9.964;2024-01-15T12:20:00;6.78;;;4.22;;
54909;SDS011;63189;51.240;9.964;2024-01-15T12:22:25;5.70;;;3.55;;
54909;SDS011;63189;51.240;9.964;2024-01-15T12:24:53;5.55;;;3.83;;
54909;SDS011;63189;51.240;9.964;2024-01-15T12:27:18;6.00;;;3.47;;
54909;SDS011;63189;51.240;9.964;2024-01-15T12:29:44;4.82;;;3.00;;
54909;SDS011;63189;51.240;9.964;2024-01-15T12:32:09;6.60;;;3.70;;
54909;SDS011;63189;51.240;9.964;2024-01-15T12:34:37;5.45;;;3.38;;
54909;SDS011;63189;51.240;9.964;2024-01-15T12:37:02;6.25;;;3.38;;
54909;SDS011;63189;51.240;9.964;2024-01-15T12:39:28;5.65;;;3.40;;
54909;SDS011;63189;51.240;9.964;2024-01-15T12:41:53;4.40;;;2.85;;
54909;SDS011;63189;51.240;9.964;2024-01-15T12:44:18;4.50;;;3.10;;
54909;SDS011;63189;51.240;9.964;2024-01-15T12:46:44;7.50;;;3.40;;
54909;SDS011;63189;51.240;9.964;2024-01-15T12:49:10;10.07;;;4.38;;
54909;SDS011;63189;51.240;9.964;2024-01-15T12:51:35;6.35;;;3.53;;
54909;SDS011;63189;51.240;9.964;2024-01-15T12:54:00;4.18;;;2.70;;
54909;SDS011;63189;51.240;9.964;2024-01-15T12:56:26;4.93;;;3.10;;
54909;SDS011;63189;51.240;9.964;2024-01-15T12:58:51;5.72;;;3.10;;
54909;SDS011;63189;51.240;9.964;2024-01-15T13:01:16;6.70;;;3.63;;
54909;SDS011;63189;51.240;9.964;2024-01-15T13:03:42;6.15;;;3.10;;
54909;SDS011;63189;51.240;9.964;2024-01-15T13:06:07;3.95;;;2.58;;
54909;SDS011;63189;51.240;9.964;2024-01-15T13:08:32;7.30;;;3.17;;
54909;SDS011;63189;51.240;9.964;2024-01-15T13:10:57;5.95;;;2.55;;
54909;SDS011;63189;51.240;9.964;2024-01-15T13:13:23;8.63;;;4.18;;
54909;SDS011;63189;51.240;9.964;2024-01-15T13:15:48;6.47;;;3.40;;
54909;SDS011;63189;51.240;9.964;2024-01-15T13:18:14;7.05;;;2.83;;
54909;SDS011;63189;51.240;9.964;2024-01-15T13:20:39;4.88;;;3.30;;
54909;SDS011;63189;51.240;9.964;2024-01-15T13:23:05;4.57;;;2.65;;
54909;SDS011;63189;51.240;9.964;2024-01-15T13:25:30;5.03;;;2.47;;
54909;SDS011;63189;51.240;9.964;2024-01-15T13:27:56;5.10;;;2.53;;
54909;SDS011;63189;51.240;9.964;2024-01-15T13:30:21;6.65;;;2.50;;
54909;SDS011;63189;51.240;9.964;2024-01-15T13:32:46;4.07;;;2.50;;
54909;SDS011;63189;51.240;9.964;2024-01-15T13:35:12;5.97;;;2.90;;
54909;SDS011;63189;51.240;9.964;2024-01-15T13:37:38;6.78;;;2.95;;
54909;SDS011;63189;51.240;9.964;2024-01-15T13:40:06;6.85;;;2.90;;
54909;SDS011;63189;51.240;9.964;2024-01-15T13:42:34;5.72;;;2.70;;
54909;SDS011;63189;51.240;9.964;2024-01-15T13:44:59;6.28;;;2.38;;
54909;SDS011;63189;51.240;9.964;2024-01-15T13:47:25;7.47;;;2.65;;
54909;SDS011;63189;51.240;9.964;2024-01-15T13:49:50;5.85;;;2.13;;
54909;SDS011;63189;51.240;9.964;2024-01-15T13:52:15;7.63;;;2.80;;
54909;SDS011;63189;51.240;9.964;2024-01-15T13:54:41;5.97;;;2.60;;
54909;SDS011;63189;51.240;9.964;2024-01-15T13:57:07;8.18;;;4.60;;
54909;SDS011;63189;51.240;9.964;2024-01-15T13:59:32;6.28;;;3.25;;
54909;SDS011;63189;51.240;9.964;2024-01-15T14:01:58;6.43;;;2.40;;
54909;SDS011;63189;51.240;9.964;2024-01-15T14:04:23;5.32;;;2.70;;
54909;SDS011;63189;51.240;9.964;2024-01-15T14:06:48;6.05;;;2.80;;
54909;SDS011;63189;51.240;9.964;2024-01-15T14:09:13;6.53;;;2.83;;
54909;SDS011;63189;51.240;9.964;2024-01-15T14:11:39;7.38;;;3.20;;
54909;SDS011;63189;51.240;9.964;2024-01-15T14:14:05;6.45;;;2.97;;
54909;SDS011;63189;51.240;9.964;2024-01-15T14:16:30;8.68;;;3.80;;
54909;SDS011;63189;51.240;9.964;2024-01-15T14:18:55;8.60;;;4.00;;
54909;SDS011;63189;51.240;9.964;2024-01-15T14:21:21;9.60;;;4.53;;
54909;SDS011;63189;51.240;9.964;2024-01-15T14:23:46;10.55;;;3.55;;
54909;SDS011;63189;51.240;9.964;2024-01-15T14:26:11;11.35;;;3.70;;
54909;SDS011;63189;51.240;9.964;2024-01-15T14:28:37;10.15;;;3.45;;
54909;SDS011;63189;51.240;9.964;2024-01-15T14:31:02;8.07;;;3.90;;
54909;SDS011;63189;51.240;9.964;2024-01-15T14:33:27;5.68;;;3.10;;
54909;SDS011;63189;51.240;9.964;2024-01-15T14:35:53;7.97;;;3.45;;
54909;SDS011;63189;51.240;9.964;2024-01-15T14:38:18;6.88;;;2.80;;
54909;SDS011;63189;51.240;9.964;2024-01-15T14:40:44;8.10;;;2.72;;
54909;SDS011;63189;51.240;9.964;2024-01-15T14:43:09;6.18;;;2.40;;
54909;SDS011;63189;51.240;9.964;2024-01-15T14:45:35;5.28;;;2.38;;